sensor_id;sensor_type;location;lat;lon;timestamp;pressure;altitude;pressure_sealevel;temperature;humidity
27984;BME280;15317;50.360;8.726;2023-04-06T00:02:11;99736.03;;;-0.04;82.39
27984;BME280;15317;50.360;8.726;2023-04-06T00:06:13;99743.16;;;-0.04;81.97
27984;BME280;15317;50.360;8.726;2023-04-06T00:10:15;99736.19;;;-0.07;81.92
27984;BME280;15317;50.360;8.726;2023-04-06T00:14:19;99732.06;;;-0.12;82.92
27984;BME280;15317;50.360;8.726;2023-04-06T00:18:21;99730.53;;;-0.16;82.86
27984;BME280;15317;50.360;8.726;2023-04-06T00:22:22;99728.94;;;-0.20;83.39
27984;BME280;15317;50.360;8.726;2023-04-06T00:26:24;99725.53;;;-0.22;84.34
27984;BME280;15317;50.360;8.726;2023-04-06T00:30:28;99728.38;;;-0.25;84.74
27984;BME280;15317;50.360;8.726;2023-04-06T00:34:30;99727.78;;;-0.30;85.96
27984;BME280;15317;50.360;8.726;2023-04-06T00:38:31;99726.22;;;-0.34;86.71
27984;BME280;15317;50.360;8.726;2023-04-06T00:42:33;99717.44;;;-0.36;87.58
27984;BME280;15317;50.360;8.726;2023-04-06T00:46:37;99712.09;;;-0.36;87.15
27984;BME280;15317;50.360;8.726;2023-04-06T00:50:39;99712.44;;;-0.43;88.28
27984;BME280;15317;50.360;8.726;2023-04-06T00:54:41;99712.78;;;-0.49;88.70
27984;BME280;15317;50.360;8.726;2023-04-06T00:58:43;99706.81;;;-0.54;88.98
27984;BME280;15317;50.360;8.726;2023-04-06T01:02:46;99700.03;;;-0.59;89.38
27984;BME280;15317;50.360;8.726;2023-04-06T01:06:49;99702.97;;;-0.64;90.03
27984;BME280;15317;50.360;8.726;2023-04-06T01:10:51;99689.91;;;-0.68;89.83
27984;BME280;15317;50.360;8.726;2023-04-06T01:14:53;99697.09;;;-0.70;90.28
27984;BME280;15317;50.360;8.726;2023-04-06T01:18:56;99691.06;;;-0.74;90.30
27984;BME280;15317;50.360;8.726;2023-04-06T01:22:59;99683.47;;;-0.82;91.53
27984;BME280;15317;50.360;8.726;2023-04-06T01:27:01;99684.53;;;-0.84;92.18
27984;BME280;15317;50.360;8.726;2023-04-06T01:31:04;99674.81;;;-0.85;92.19
27984;BME280;15317;50.360;8.726;2023-04-06T01:35:06;99678.34;;;-0.85;92.76
27984;BME280;15317;50.360;8.726;2023-04-06T01:39:10;99680.41;;;-0.90;91.97
27984;BME280;15317;50.360;8.726;2023-04-06T01:43:11;99674.53;;;-0.96;92.85
27984;BME280;15317;50.360;8.726;2023-04-06T01:47:13;99668.34;;;-0.97;92.95
27984;BME280;15317;50.360;8.726;2023-04-06T01:51:15;99668.41;;;-0.98;93.37
27984;BME280;15317;50.360;8.726;2023-04-06T01:55:19;99672.81;;;-0.97;93.71
27984;BME280;15317;50.360;8.726;2023-04-06T01:59:21;99666.00;;;-1.03;93.87
27984;BME280;15317;50.360;8.726;2023-04-06T02:03:23;99670.47;;;-1.03;94.44
27984;BME280;15317;50.360;8.726;2023-04-06T02:07:25;99667.09;;;-1.07;94.08
27984;BME280;15317;50.360;8.726;2023-04-06T02:11:28;99654.72;;;-1.08;94.82
27984;BME280;15317;50.360;8.726;2023-04-06T02:15:30;99664.69;;;-1.11;94.80
27984;BME280;15317;50.360;8.726;2023-04-06T02:19:32;99662.97;;;-1.12;94.87
27984;BME280;15317;50.360;8.726;2023-04-06T02:23:34;99658.66;;;-1.15;94.42
27984;BME280;15317;50.360;8.726;2023-04-06T02:27:38;99652.66;;;-1.18;94.90
27984;BME280;15317;50.360;8.726;2023-04-06T02:31:40;99652.72;;;-1.20;94.92
27984;BME280;15317;50.360;8.726;2023-04-06T02:35:44;99646.53;;;-1.21;95.74
27984;BME280;15317;50.360;8.726;2023-04-06T02:39:46;99651.06;;;-1.23;95.25
27984;BME280;15317;50.360;8.726;2023-04-06T02:43:49;99649.53;;;-1.27;95.97
27984;BME280;15317;50.360;8.726;2023-04-06T02:47:51;99656.56;;;-1.26;96.14
27984;BME280;15317;50.360;8.726;2023-04-06T02:51:53;99644.38;;;-1.30;96.51
27984;BME280;15317;50.360;8.726;2023-04-06T02:55:56;99656.91;;;-1.32;96.97
27984;BME280;15317;50.360;8.726;2023-04-06T02:59:59;99655.25;;;-1.34;97.58
27984;BME280;15317;50.360;8.726;2023-04-06T03:04:01;99659.72;;;-1.35;98.05
27984;BME280;15317;50.360;8.726;2023-04-06T03:08:03;99656.38;;;-1.38;98.67
27984;BME280;15317;50.360;8.726;2023-04-06T03:12:06;99656.44;;;-1.40;98.45
27984;BME280;15317;50.360;8.726;2023-04-06T03:16:09;99656.59;;;-1.43;99.15
27984;BME280;15317;50.360;8.726;2023-04-06T03:20:11;99659.44;;;-1.46;99.25
27984;BME280;15317;50.360;8.726;2023-04-06T03:24:13;99663.91;;;-1.46;99.92
27984;BME280;15317;50.360;8.726;2023-04-06T03:28:15;99652.38;;;-1.47;100.00
27984;BME280;15317;50.360;8.726;2023-04-06T03:32:19;99663.19;;;-1.50;100.00
27984;BME280;15317;50.360;8.726;2023-04-06T03:36:21;99651.84;;;-1.53;100.00
27984;BME280;15317;50.360;8.726;2023-04-06T03:40:23;99650.97;;;-1.54;100.00
27984;BME280;15317;50.360;8.726;2023-04-06T03:44:25;99656.31;;;-1.54;100.00
27984;BME280;15317;50.360;8.726;2023-04-06T03:48:28;99652.00;;;-1.56;100.00
27984;BME280;15317;50.360;8.726;2023-04-06T03:52:30;99651.22;;;-1.58;100.00
27984;BME280;15317;50.360;8.726;2023-04-06T03:56:32;99655.84;;;-1.62;100.00
27984;BME280;15317;50.360;8.726;2023-04-06T04:00:34;99656.03;;;-1.65;100.00
27984;BME280;15317;50.360;8.726;2023-04-06T04:04:37;99651.63;;;-1.66;100.00
27984;BME280;15317;50.360;8.726;2023-04-06T04:08:39;99660.56;;;-1.67;100.00
27984;BME280;15317;50.360;8.726;2023-04-06T04:12:42;99659.69;;;-1.68;100.00
27984;BME280;15317;50.360;8.726;2023-04-06T04:16:44;99663.28;;;-1.69;100.00
27984;BME280;15317;50.360;8.726;2023-04-06T04:20:47;99663.28;;;-1.69;100.00
27984;BME280;15317;50.360;8.726;2023-04-06T04:24:49;99669.72;;;-1.73;100.00
27984;BME280;15317;50.360;8.726;2023-04-06T04:28:51;99669.78;;;-1.74;100.00
27984;BME280;15317;50.360;8.726;2023-04-06T04:32:53;99669.09;;;-1.78;100.00
27984;BME280;15317;50.360;8.726;2023-04-06T04:36:56;99671.84;;;-1.79;100.00
27984;BME280;15317;50.360;8.726;2023-04-06T04:40:58;99673.56;;;-1.78;100.00
27984;BME280;15317;50.360;8.726;2023-04-06T04:45:00;99669.94;;;-1.77;100.00
27984;BME280;15317;50.360;8.726;2023-04-06T04:49:02;99680.50;;;-1.76;100.00
27984;BME280;15317;50.360;8.726;2023-04-06T04:53:06;99677.84;;;-1.76;100.00
27984;BME280;15317;50.360;8.726;2023-04-06T04:57:08;99674.25;;;-1.75;100.00
27984;BME280;15317;50.360;8.726;2023-04-06T05:01:10;99675.13;;;-1.74;100.00
27984;BME280;15317;50.360;8.726;2023-04-06T05:05:12;99682.00;;;-1.70;100.00
27984;BME280;15317;50.360;8.726;2023-04-06T05:09:15;99686.19;;;-1.65;100.00
27984;BME280;15317;50.360;8.726;2023-04-06T05:13:18;99684.81;;;-1.56;100.00
27984;BME280;15317;50.360;8.726;2023-04-06T05:17:20;99681.63;;;-1.45;100.00
27984;BME280;15317;50.360;8.726;2023-04-06T05:21:22;99680.44;;;-1.40;100.00
27984;BME280;15317;50.360;8.726;2023-04-06T05:25:25;99686.16;;;-1.30;100.00
27984;BME280;15317;50.360;8.726;2023-04-06T05:29:28;99693.56;;;-1.20;100.00
27984;BME280;15317;50.360;8.726;2023-04-06T05:33:31;99679.75;;;-1.10;100.00
27984;BME280;15317;50.360;8.726;2023-04-06T05:37:33;99690.00;;;-0.87;100.00
27984;BME280;15317;50.360;8.726;2023-04-06T05:41:36;99695.72;;;-0.46;100.00
27984;BME280;15317;50.360;8.726;2023-04-06T05:45:38;99702.50;;;0.36;100.00
27984;BME280;15317;50.360;8.726;2023-04-06T05:49:41;99699.78;;;2.46;93.58
27984;BME280;15317;50.360;8.726;2023-04-06T05:53:43;99705.03;;;4.34;80.26
27984;BME280;15317;50.360;8.726;2023-04-06T05:57:46;99708.97;;;5.56;67.48
27984;BME280;15317;50.360;8.726;2023-04-06T06:01:48;99710.66;;;6.45;58.97
27984;BME280;15317;50.360;8.726;2023-04-06T06:05:50;99714.81;;;7.52;58.31
27984;BME280;15317;50.360;8.726;2023-04-06T06:09:52;99714.81;;;7.92;55.07
27984;BME280;15317;50.360;8.726;2023-04-06T06:13:59;99710.19;;;8.14;52.71
27984;BME280;15317;50.360;8.726;2023-04-06T06:18:01;99709.50;;;7.41;54.46
27984;BME280;15317;50.360;8.726;2023-04-06T06:22:03;99716.31;;;6.73;55.28
27984;BME280;15317;50.360;8.726;2023-04-06T06:26:05;99717.41;;;5.96;57.04
27984;BME280;15317;50.360;8.726;2023-04-06T06:30:09;99713.59;;;5.87;58.81
27984;BME280;15317;50.360;8.726;2023-04-06T06:34:11;99709.44;;;5.28;59.74
27984;BME280;15317;50.360;8.726;2023-04-06T06:38:14;99721.22;;;5.38;62.02
27984;BME280;15317;50.360;8.726;2023-04-06T06:42:16;99712.63;;;5.22;62.08
27984;BME280;15317;50.360;8.726;2023-04-06T06:46:19;99711.16;;;5.29;64.10
27984;BME280;15317;50.360;8.726;2023-04-06T06:50:21;99717.13;;;5.10;63.49
27984;BME280;15317;50.360;8.726;2023-04-06T06:54:23;99717.31;;;4.85;64.26
27984;BME280;15317;50.360;8.726;2023-04-06T06:58:25;99715.47;;;4.85;65.58
27984;BME280;15317;50.360;8.726;2023-04-06T07:02:29;99702.59;;;4.66;66.32
27984;BME280;15317;50.360;8.726;2023-04-06T07:06:30;99711.78;;;4.75;66.80
27984;BME280;15317;50.360;8.726;2023-04-06T07:10:33;99723.53;;;4.85;67.03
27984;BME280;15317;50.360;8.726;2023-04-06T07:14:35;99714.00;;;4.81;67.36
27984;BME280;15317;50.360;8.726;2023-04-06T07:18:39;99711.41;;;4.80;67.50
27984;BME280;15317;50.360;8.726;2023-04-06T07:22:42;99714.56;;;5.08;67.55
27984;BME280;15317;50.360;8.726;2023-04-06T07:26:44;99707.66;;;4.47;67.22
27984;BME280;15317;50.360;8.726;2023-04-06T07:30:47;99702.75;;;4.87;70.24
27984;BME280;15317;50.360;8.726;2023-04-06T07:34:50;99706.00;;;5.03;68.75
27984;BME280;15317;50.360;8.726;2023-04-06T07:38:52;99709.91;;;5.22;69.23
27984;BME280;15317;50.360;8.726;2023-04-06T07:42:55;99709.22;;;4.73;68.39
27984;BME280;15317;50.360;8.726;2023-04-06T07:46:56;99716.97;;;4.89;70.12
27984;BME280;15317;50.360;8.726;2023-04-06T07:51:04;99707.59;;;5.17;70.65
27984;BME280;15317;50.360;8.726;2023-04-06T07:55:07;99709.44;;;5.16;69.48
27984;BME280;15317;50.360;8.726;2023-04-06T07:59:09;99705.78;;;5.51;71.24
27984;BME280;15317;50.360;8.726;2023-04-06T08:03:12;99701.22;;;5.96;70.40
27984;BME280;15317;50.360;8.726;2023-04-06T08:07:15;99707.13;;;5.90;67.56
27984;BME280;15317;50.360;8.726;2023-04-06T08:11:17;99702.31;;;5.82;66.84
27984;BME280;15317;50.360;8.726;2023-04-06T08:15:19;99694.47;;;6.02;68.26
27984;BME280;15317;50.360;8.726;2023-04-06T08:19:21;99706.91;;;6.25;67.07
27984;BME280;15317;50.360;8.726;2023-04-06T08:23:25;99707.50;;;6.40;65.17
27984;BME280;15317;50.360;8.726;2023-04-06T08:27:27;99710.25;;;6.49;64.91
27984;BME280;15317;50.360;8.726;2023-04-06T08:31:29;99700.22;;;6.72;63.71
27984;BME280;15317;50.360;8.726;2023-04-06T08:35:31;99709.53;;;7.00;61.97
27984;BME280;15317;50.360;8.726;2023-04-06T08:39:34;99697.84;;;7.20;59.84
27984;BME280;15317;50.360;8.726;2023-04-06T08:43:42;99703.25;;;7.20;59.53
27984;BME280;15317;50.360;8.726;2023-04-06T08:47:45;99702.56;;;7.48;60.40
27984;BME280;15317;50.360;8.726;2023-04-06T08:51:49;99697.13;;;7.79;59.63
27984;BME280;15317;50.360;8.726;2023-04-06T08:55:52;99705.41;;;7.87;58.10
27984;BME280;15317;50.360;8.726;2023-04-06T08:59:56;99714.03;;;8.11;59.83
27984;BME280;15317;50.360;8.726;2023-04-06T09:03:59;99701.06;;;8.15;59.21
27984;BME280;15317;50.360;8.726;2023-04-06T09:08:01;99700.72;;;8.39;57.31
27984;BME280;15317;50.360;8.726;2023-04-06T09:12:05;99698.72;;;8.50;56.24
27984;BME280;15317;50.360;8.726;2023-04-06T09:16:07;99696.03;;;8.50;56.37
27984;BME280;15317;50.360;8.726;2023-04-06T09:20:11;99700.44;;;8.61;55.76
27984;BME280;15317;50.360;8.726;2023-04-06T09:24:13;99691.59;;;8.68;53.36
27984;BME280;15317;50.360;8.726;2023-04-06T09:28:16;99697.59;;;8.91;54.48
27984;BME280;15317;50.360;8.726;2023-04-06T09:32:18;99684.25;;;9.27;55.09
27984;BME280;15317;50.360;8.726;2023-04-06T09:36:30;99684.53;;;9.24;51.14
27984;BME280;15317;50.360;8.726;2023-04-06T09:40:32;99679.50;;;9.48;50.24
27984;BME280;15317;50.360;8.726;2023-04-06T09:44:35;99676.78;;;9.48;49.23
27984;BME280;15317;50.360;8.726;2023-04-06T09:48:37;99670.59;;;9.56;47.47
27984;BME280;15317;50.360;8.726;2023-04-06T09:52:41;99669.09;;;9.71;49.29
27984;BME280;15317;50.360;8.726;2023-04-06T09:56:45;99666.00;;;10.20;49.96
27984;BME280;15317;50.360;8.726;2023-04-06T10:01:01;99666.69;;;10.40;49.87
27984;BME280;15317;50.360;8.726;2023-04-06T10:05:08;99665.63;;;10.33;49.29
27984;BME280;15317;50.360;8.726;2023-04-06T10:09:11;99670.56;;;10.38;48.99
27984;BME280;15317;50.360;8.726;2023-04-06T10:13:15;99664.84;;;10.58;49.63
27984;BME280;15317;50.360;8.726;2023-04-06T10:17:18;99660.66;;;10.46;48.60
27984;BME280;15317;50.360;8.726;2023-04-06T10:21:23;99660.59;;;10.56;48.68
27984;BME280;15317;50.360;8.726;2023-04-06T10:25:28;99662.53;;;10.63;48.51
27984;BME280;15317;50.360;8.726;2023-04-06T10:29:41;99661.97;;;10.60;48.43
27984;BME280;15317;50.360;8.726;2023-04-06T10:33:54;99660.94;;;10.79;47.33
27984;BME280;15317;50.360;8.726;2023-04-06T10:38:02;99658.31;;;11.13;47.78
27984;BME280;15317;50.360;8.726;2023-04-06T10:42:06;99656.09;;;11.08;46.60
27984;BME280;15317;50.360;8.726;2023-04-06T10:46:09;99663.00;;;11.28;46.03
27984;BME280;15317;50.360;8.726;2023-04-06T10:50:14;99652.28;;;11.27;44.67
27984;BME280;15317;50.360;8.726;2023-04-06T10:54:17;99660.63;;;11.51;46.88
27984;BME280;15317;50.360;8.726;2023-04-06T10:58:24;99642.84;;;11.65;46.68
27984;BME280;15317;50.360;8.726;2023-04-06T11:02:26;99647.50;;;11.80;44.34
27984;BME280;15317;50.360;8.726;2023-04-06T11:06:30;99644.63;;;11.82;45.69
27984;BME280;15317;50.360;8.726;2023-04-06T11:10:33;99640.41;;;11.96;46.19
27984;BME280;15317;50.360;8.726;2023-04-06T11:14:35;99639.31;;;12.14;44.41
27984;BME280;15317;50.360;8.726;2023-04-06T11:18:37;99636.25;;;12.25;44.51
27984;BME280;15317;50.360;8.726;2023-04-06T11:22:49;99628.75;;;12.19;43.00
27984;BME280;15317;50.360;8.726;2023-04-06T11:26:54;99630.66;;;12.43;44.21
27984;BME280;15317;50.360;8.726;2023-04-06T11:30:56;99620.78;;;12.50;42.58
27984;BME280;15317;50.360;8.726;2023-04-06T11:34:58;99619.28;;;12.80;42.99
27984;BME280;15317;50.360;8.726;2023-04-06T11:39:02;99624.22;;;12.77;41.45
27984;BME280;15317;50.360;8.726;2023-04-06T11:43:04;99618.94;;;12.67;40.77
27984;BME280;15317;50.360;8.726;2023-04-06T11:47:09;99619.44;;;12.71;41.47
27984;BME280;15317;50.360;8.726;2023-04-06T11:51:11;99606.66;;;12.95;40.98
27984;BME280;15317;50.360;8.726;2023-04-06T11:55:16;99596.75;;;13.27;41.24
27984;BME280;15317;50.360;8.726;2023-04-06T11:59:18;99601.50;;;13.25;40.48
27984;BME280;15317;50.360;8.726;2023-04-06T12:03:20;99596.94;;;13.09;39.94
27984;BME280;15317;50.360;8.726;2023-04-06T12:07:22;99599.16;;;12.97;39.93
27984;BME280;15317;50.360;8.726;2023-04-06T12:11:26;99603.78;;;12.81;39.89
27984;BME280;15317;50.360;8.726;2023-04-06T12:15:27;99603.94;;;12.71;40.05
27984;BME280;15317;50.360;8.726;2023-04-06T12:19:30;99595.59;;;12.56;40.20
27984;BME280;15317;50.360;8.726;2023-04-06T12:23:31;99595.63;;;12.48;40.03
27984;BME280;15317;50.360;8.726;2023-04-06T12:27:35;99592.53;;;12.84;43.30
27984;BME280;15317;50.360;8.726;2023-04-06T12:31:37;99579.41;;;12.95;41.71
27984;BME280;15317;50.360;8.726;2023-04-06T12:35:41;99594.06;;;12.94;40.38
27984;BME280;15317;50.360;8.726;2023-04-06T12:39:43;99586.03;;;12.93;40.91
27984;BME280;15317;50.360;8.726;2023-04-06T12:43:48;99580.75;;;12.91;40.24
27984;BME280;15317;50.360;8.726;2023-04-06T12:47:50;99587.25;;;12.74;40.60
27984;BME280;15317;50.360;8.726;2023-04-06T12:51:52;99575.66;;;12.96;42.18
27984;BME280;15317;50.360;8.726;2023-04-06T12:55:56;99579.41;;;12.95;40.98
27984;BME280;15317;50.360;8.726;2023-04-06T12:59:59;99571.41;;;12.94;39.84
27984;BME280;15317;50.360;8.726;2023-04-06T13:04:01;99575.34;;;12.75;39.92
27984;BME280;15317;50.360;8.726;2023-04-06T13:08:03;99560.66;;;12.92;41.19
27984;BME280;15317;50.360;8.726;2023-04-06T13:12:05;99557.59;;;12.95;40.49
27984;BME280;15317;50.360;8.726;2023-04-06T13:16:08;99551.44;;;13.01;40.65
27984;BME280;15317;50.360;8.726;2023-04-06T13:20:12;99553.81;;;13.13;41.00
27984;BME280;15317;50.360;8.726;2023-04-06T13:24:14;99539.47;;;13.27;42.25
27984;BME280;15317;50.360;8.726;2023-04-06T13:28:16;99549.03;;;13.06;39.55
27984;BME280;15317;50.360;8.726;2023-04-06T13:32:20;99542.25;;;13.02;39.98
27984;BME280;15317;50.360;8.726;2023-04-06T13:36:22;99533.00;;;13.20;40.58
27984;BME280;15317;50.360;8.726;2023-04-06T13:40:24;99533.53;;;13.07;40.15
27984;BME280;15317;50.360;8.726;2023-04-06T13:44:27;99534.72;;;13.04;40.33
27984;BME280;15317;50.360;8.726;2023-04-06T13:48:31;99534.00;;;13.27;41.16
27984;BME280;15317;50.360;8.726;2023-04-06T13:52:35;99541.16;;;13.28;40.63
27984;BME280;15317;50.360;8.726;2023-04-06T13:56:37;99546.97;;;13.25;38.95
27984;BME280;15317;50.360;8.726;2023-04-06T14:00:38;99536.78;;;13.02;38.52
27984;BME280;15317;50.360;8.726;2023-04-06T14:04:42;99536.75;;;13.19;40.71
27984;BME280;15317;50.360;8.726;2023-04-06T14:08:44;99529.97;;;13.15;40.13
27984;BME280;15317;50.360;8.726;2023-04-06T14:12:46;99530.28;;;13.20;38.97
27984;BME280;15317;50.360;8.726;2023-04-06T14:16:49;99536.78;;;13.02;39.16
27984;BME280;15317;50.360;8.726;2023-04-06T14:20:56;99528.94;;;12.99;38.24
27984;BME280;15317;50.360;8.726;2023-04-06T14:24:58;99525.19;;;13.09;39.45
27984;BME280;15317;50.360;8.726;2023-04-06T14:29:00;99518.03;;;12.99;38.95
27984;BME280;15317;50.360;8.726;2023-04-06T14:33:02;99518.34;;;13.21;39.59
27984;BME280;15317;50.360;8.726;2023-04-06T14:37:05;99522.31;;;12.94;37.99
27984;BME280;15317;50.360;8.726;2023-04-06T14:41:08;99509.91;;;12.83;38.80
27984;BME280;15317;50.360;8.726;2023-04-06T14:45:10;99514.53;;;12.66;39.46
27984;BME280;15317;50.360;8.726;2023-04-06T14:49:12;99505.28;;;12.84;41.26
27984;BME280;15317;50.360;8.726;2023-04-06T14:53:15;99513.34;;;12.69;41.53
27984;BME280;15317;50.360;8.726;2023-04-06T14:57:17;99503.66;;;12.50;40.78
27984;BME280;15317;50.360;8.726;2023-04-06T15:01:19;99505.19;;;12.61;41.22
27984;BME280;15317;50.360;8.726;2023-04-06T15:05:22;99495.63;;;12.49;40.79
27984;BME280;15317;50.360;8.726;2023-04-06T15:09:25;99498.56;;;12.55;40.89
27984;BME280;15317;50.360;8.726;2023-04-06T15:13:27;99498.72;;;12.62;42.30
27984;BME280;15317;50.360;8.726;2023-04-06T15:17:30;99507.56;;;12.64;41.89
27984;BME280;15317;50.360;8.726;2023-04-06T15:21:32;99499.06;;;12.59;39.92
27984;BME280;15317;50.360;8.726;2023-04-06T15:25:35;99489.16;;;12.66;40.44
27984;BME280;15317;50.360;8.726;2023-04-06T15:29:41;99494.94;;;12.79;41.72
27984;BME280;15317;50.360;8.726;2023-04-06T15:33:43;99494.28;;;12.69;39.77
27984;BME280;15317;50.360;8.726;2023-04-06T15:37:45;99498.03;;;12.68;40.16
27984;BME280;15317;50.360;8.726;2023-04-06T15:41:48;99502.25;;;12.62;40.05
27984;BME280;15317;50.360;8.726;2023-04-06T15:45:50;99494.28;;;12.61;40.40
27984;BME280;15317;50.360;8.726;2023-04-06T15:49:53;99489.00;;;12.51;40.75
27984;BME280;15317;50.360;8.726;2023-04-06T15:53:55;99491.91;;;12.50;41.03
27984;BME280;15317;50.360;8.726;2023-04-06T15:57:59;99491.72;;;12.51;39.71
27984;BME280;15317;50.360;8.726;2023-04-06T16:02:01;99494.97;;;12.47;40.30
27984;BME280;15317;50.360;8.726;2023-04-06T16:06:03;99493.63;;;12.35;40.17
27984;BME280;15317;50.360;8.726;2023-04-06T16:10:07;99493.28;;;12.38;41.73
27984;BME280;15317;50.360;8.726;2023-04-06T16:14:10;99502.81;;;12.17;40.55
27984;BME280;15317;50.360;8.726;2023-04-06T16:18:12;99498.88;;;11.96;41.64
27984;BME280;15317;50.360;8.726;2023-04-06T16:22:14;99497.00;;;11.88;41.96
27984;BME280;15317;50.360;8.726;2023-04-06T16:26:16;99498.72;;;11.97;41.46
27984;BME280;15317;50.360;8.726;2023-04-06T16:30:20;99495.63;;;11.84;41.12
27984;BME280;15317;50.360;8.726;2023-04-06T16:34:22;99494.22;;;11.72;40.93
27984;BME280;15317;50.360;8.726;2023-04-06T16:38:24;99495.09;;;11.72;42.59
27984;BME280;15317;50.360;8.726;2023-04-06T16:42:31;99501.34;;;11.65;42.15
27984;BME280;15317;50.360;8.726;2023-04-06T16:46:35;99492.47;;;11.55;41.43
27984;BME280;15317;50.360;8.726;2023-04-06T16:50:37;99492.13;;;11.49;45.23
27984;BME280;15317;50.360;8.726;2023-04-06T16:54:39;99489.72;;;11.38;44.50
27984;BME280;15317;50.360;8.726;2023-04-06T16:58:41;99493.94;;;11.25;42.99
27984;BME280;15317;50.360;8.726;2023-04-06T17:02:46;99489.66;;;11.22;42.52
27984;BME280;15317;50.360;8.726;2023-04-06T17:06:48;99492.91;;;11.26;42.26
27984;BME280;15317;50.360;8.726;2023-04-06T17:10:51;99491.38;;;11.23;41.41
27984;BME280;15317;50.360;8.726;2023-04-06T17:14:53;99496.56;;;11.08;42.28
27984;BME280;15317;50.360;8.726;2023-04-06T17:18:56;99489.19;;;10.93;42.60
27984;BME280;15317;50.360;8.726;2023-04-06T17:22:58;99489.38;;;10.99;44.69
27984;BME280;15317;50.360;8.726;2023-04-06T17:27:00;99488.78;;;10.80;43.12
27984;BME280;15317;50.360;8.726;2023-04-06T17:31:06;99482.81;;;10.76;44.97
27984;BME280;15317;50.360;8.726;2023-04-06T17:35:10;99499.75;;;10.70;44.16
27984;BME280;15317;50.360;8.726;2023-04-06T17:39:12;99488.63;;;10.55;46.18
27984;BME280;15317;50.360;8.726;2023-04-06T17:43:14;99489.34;;;10.57;46.22
27984;BME280;15317;50.360;8.726;2023-04-06T17:47:16;99498.09;;;10.51;45.39
27984;BME280;15317;50.360;8.726;2023-04-06T17:51:20;99498.91;;;10.44;45.84
27984;BME280;15317;50.360;8.726;2023-04-06T17:55:22;99504.44;;;10.34;46.52
27984;BME280;15317;50.360;8.726;2023-04-06T17:59:24;99504.44;;;10.34;47.08
27984;BME280;15317;50.360;8.726;2023-04-06T18:03:26;99520.50;;;10.27;46.71
27984;BME280;15317;50.360;8.726;2023-04-06T18:07:29;99527.94;;;10.25;48.39
27984;BME280;15317;50.360;8.726;2023-04-06T18:11:31;99529.78;;;10.25;48.11
27984;BME280;15317;50.360;8.726;2023-04-06T18:15:33;99522.56;;;10.16;48.93
27984;BME280;15317;50.360;8.726;2023-04-06T18:19:35;99532.66;;;10.06;49.15
27984;BME280;15317;50.360;8.726;2023-04-06T18:23:38;99538.78;;;10.08;49.70
27984;BME280;15317;50.360;8.726;2023-04-06T18:27:40;99541.03;;;9.95;49.59
27984;BME280;15317;50.360;8.726;2023-04-06T18:31:42;99533.09;;;9.83;50.94
27984;BME280;15317;50.360;8.726;2023-04-06T18:35:50;99553.19;;;9.90;50.51
27984;BME280;15317;50.360;8.726;2023-04-06T18:39:53;99547.13;;;9.79;51.09
27984;BME280;15317;50.360;8.726;2023-04-06T18:43:55;99555.31;;;9.69;51.48
27984;BME280;15317;50.360;8.726;2023-04-06T18:47:57;99559.06;;;9.68;51.10
27984;BME280;15317;50.360;8.726;2023-04-06T18:51:59;99558.38;;;9.66;51.85
27984;BME280;15317;50.360;8.726;2023-04-06T18:56:12;99566.53;;;9.57;53.81
27984;BME280;15317;50.360;8.726;2023-04-06T19:00:15;99570.72;;;9.51;55.20
27984;BME280;15317;50.360;8.726;2023-04-06T19:04:17;99582.47;;;9.42;56.23
27984;BME280;15317;50.360;8.726;2023-04-06T19:08:19;99571.94;;;9.39;57.96
27984;BME280;15317;50.360;8.726;2023-04-06T19:12:22;99572.81;;;9.30;58.92
27984;BME280;15317;50.360;8.726;2023-04-06T19:16:25;99583.81;;;9.28;60.90
27984;BME280;15317;50.360;8.726;2023-04-06T19:20:27;99579.16;;;9.21;63.87
27984;BME280;15317;50.360;8.726;2023-04-06T19:24:29;99584.06;;;8.98;65.24
27984;BME280;15317;50.360;8.726;2023-04-06T19:28:32;99569.94;;;9.04;66.29
27984;BME280;15317;50.360;8.726;2023-04-06T19:32:34;99576.16;;;8.77;69.26
27984;BME280;15317;50.360;8.726;2023-04-06T19:36:36;99592.72;;;8.64;72.20
27984;BME280;15317;50.360;8.726;2023-04-06T19:40:38;99588.28;;;8.54;75.37
27984;BME280;15317;50.360;8.726;2023-04-06T19:44:41;99586.31;;;8.65;77.78
27984;BME280;15317;50.360;8.726;2023-04-06T19:48:43;99589.19;;;8.35;81.20
27984;BME280;15317;50.360;8.726;2023-04-06T19:52:45;99590.44;;;8.12;86.37
27984;BME280;15317;50.360;8.726;2023-04-06T19:56:47;99589.69;;;8.00;90.88
27984;BME280;15317;50.360;8.726;2023-04-06T20:00:50;99587.84;;;7.81;94.27
27984;BME280;15317;50.360;8.726;2023-04-06T20:04:52;99588.97;;;7.79;96.33
27984;BME280;15317;50.360;8.726;2023-04-06T20:08:54;99591.06;;;7.66;100.00
27984;BME280;15317;50.360;8.726;2023-04-06T20:12:56;99589.66;;;7.62;100.00
27984;BME280;15317;50.360;8.726;2023-04-06T20:17:02;99595.19;;;7.50;100.00
27984;BME280;15317;50.360;8.726;2023-04-06T20:21:04;99593.72;;;7.46;100.00
27984;BME280;15317;50.360;8.726;2023-04-06T20:25:07;99581.75;;;7.39;100.00
27984;BME280;15317;50.360;8.726;2023-04-06T20:29:10;99580.88;;;7.29;100.00
27984;BME280;15317;50.360;8.726;2023-04-06T20:33:13;99581.75;;;7.30;100.00
27984;BME280;15317;50.360;8.726;2023-04-06T20:37:15;99571.75;;;7.21;100.00
27984;BME280;15317;50.360;8.726;2023-04-06T20:41:18;99576.44;;;7.19;100.00
27984;BME280;15317;50.360;8.726;2023-04-06T20:45:21;99577.84;;;7.13;100.00
27984;BME280;15317;50.360;8.726;2023-04-06T20:49:25;99579.09;;;7.09;100.00
27984;BME280;15317;50.360;8.726;2023-04-06T20:53:27;99572.66;;;7.00;100.00
27984;BME280;15317;50.360;8.726;2023-04-06T20:57:29;99565.41;;;7.01;100.00
27984;BME280;15317;50.360;8.726;2023-04-06T21:01:31;99575.78;;;6.96;100.00
27984;BME280;15317;50.360;8.726;2023-04-06T21:05:35;99571.38;;;6.95;100.00
27984;BME280;15317;50.360;8.726;2023-04-06T21:09:38;99571.19;;;6.87;100.00
27984;BME280;15317;50.360;8.726;2023-04-06T21:13:41;99560.97;;;6.69;100.00
27984;BME280;15317;50.360;8.726;2023-04-06T21:17:43;99557.97;;;6.63;100.00
27984;BME280;15317;50.360;8.726;2023-04-06T21:21:46;99559.09;;;6.60;100.00
27984;BME280;15317;50.360;8.726;2023-04-06T21:25:48;99550.47;;;6.66;100.00
27984;BME280;15317;50.360;8.726;2023-04-06T21:29:51;99536.78;;;6.58;100.00